sensor_id;sensor_type;location;lat;lon;timestamp;pressure;altitude;pressure_sealevel;temperature;humidity
19624;BME280;9959;49.798;9.928;2023-12-29T00:02:14;99580.94;;;9.15;100.00
19624;BME280;9959;49.798;9.928;2023-12-29T00:04:41;99576.38;;;9.09;100.00
19624;BME280;9959;49.798;9.928;2023-12-29T00:07:09;99565.22;;;9.12;100.00
19624;BME280;9959;49.798;9.928;2023-12-29T00:09:36;99566.66;;;9.08;99.98
19624;BME280;9959;49.798;9.928;2023-12-29T00:12:08;99562.31;;;9.07;99.32
19624;BME280;9959;49.798;9.928;2023-12-29T00:14:41;99545.38;;;9.00;99.97
19624;BME280;9959;49.798;9.928;2023-12-29T00:17:08;99552.41;;;9.21;98.65
19624;BME280;9959;49.798;9.928;2023-12-29T00:19:35;99545.59;;;9.19;97.73
19624;BME280;9959;49.798;9.928;2023-12-29T00:22:02;99556.34;;;9.25;96.68
19624;BME280;9959;49.798;9.928;2023-12-29T00:24:30;99548.91;;;9.40;94.36
19624;BME280;9959;49.798;9.928;2023-12-29T00:27:01;99550.75;;;9.40;94.33
19624;BME280;9959;49.798;9.928;2023-12-29T00:29:28;99564.41;;;9.45;93.27
19624;BME280;9959;49.798;9.928;2023-12-29T00:32:00;99557.81;;;9.54;92.22
19624;BME280;9959;49.798;9.928;2023-12-29T00:34:30;99547.22;;;9.59;91.50
19624;BME280;9959;49.798;9.928;2023-12-29T00:36:57;99555.75;;;9.56;91.15
19624;BME280;9959;49.798;9.928;2023-12-29T00:39:24;99548.25;;;9.58;91.20
19624;BME280;9959;49.798;9.928;2023-12-29T00:41:55;99528.41;;;9.59;91.46
19624;BME280;9959;49.798;9.928;2023-12-29T00:44:23;99531.31;;;9.64;89.82
19624;BME280;9959;49.798;9.928;2023-12-29T00:46:50;99529.66;;;9.63;90.12
19624;BME280;9959;49.798;9.928;2023-12-29T00:49:17;99517.22;;;9.62;89.93
19624;BME280;9959;49.798;9.928;2023-12-29T00:51:44;99524.88;;;9.65;90.03
19624;BME280;9959;49.798;9.928;2023-12-29T00:54:11;99525.94;;;9.64;89.87
19624;BME280;9959;49.798;9.928;2023-12-29T00:56:38;99523.03;;;9.59;90.64
19624;BME280;9959;49.798;9.928;2023-12-29T00:59:05;99521.78;;;9.68;90.11
19624;BME280;9959;49.798;9.928;2023-12-29T01:01:34;99520.97;;;9.68;89.71
19624;BME280;9959;49.798;9.928;2023-12-29T01:04:04;99525.09;;;9.64;89.94
19624;BME280;9959;49.798;9.928;2023-12-29T01:06:31;99518.06;;;9.69;89.53
19624;BME280;9959;49.798;9.928;2023-12-29T01:08:58;99522.19;;;9.65;89.98
19624;BME280;9959;49.798;9.928;2023-12-29T01:11:25;99511.44;;;9.59;90.80
19624;BME280;9959;49.798;9.928;2023-12-29T01:13:52;99513.13;;;9.46;91.74
19624;BME280;9959;49.798;9.928;2023-12-29T01:16:19;99506.91;;;9.46;91.99
19624;BME280;9959;49.798;9.928;2023-12-29T01:18:46;99521.81;;;9.42;92.43
19624;BME280;9959;49.798;9.928;2023-12-29T01:21:13;99523.66;;;9.41;92.63
19624;BME280;9959;49.798;9.928;2023-12-29T01:23:39;99530.28;;;9.52;92.37
19624;BME280;9959;49.798;9.928;2023-12-29T01:26:06;99538.56;;;9.50;92.46
19624;BME280;9959;49.798;9.928;2023-12-29T01:28:34;99523.88;;;9.53;92.19
19624;BME280;9959;49.798;9.928;2023-12-29T01:31:01;99519.75;;;9.44;92.94
19624;BME280;9959;49.798;9.928;2023-12-29T01:33:28;99528.84;;;9.49;91.93
19624;BME280;9959;49.798;9.928;2023-12-29T01:35:55;99532.16;;;9.45;92.09
19624;BME280;9959;49.798;9.928;2023-12-29T01:38:23;99529.03;;;9.35;92.62
19624;BME280;9959;49.798;9.928;2023-12-29T01:40:50;99528.41;;;9.33;93.15
19624;BME280;9959;49.798;9.928;2023-12-29T01:43:17;99533.81;;;9.39;92.94
19624;BME280;9959;49.798;9.928;2023-12-29T01:45:44;99524.72;;;9.47;91.66
19624;BME280;9959;49.798;9.928;2023-12-29T01:48:23;99528.41;;;9.33;92.99
19624;BME280;9959;49.798;9.928;2023-12-29T01:50:52;99522.66;;;9.29;93.64
19624;BME280;9959;49.798;9.928;2023-12-29T01:53:20;99521.81;;;9.42;93.09
19624;BME280;9959;49.798;9.928;2023-12-29T01:55:59;99524.28;;;9.37;93.08
19624;BME280;9959;49.798;9.928;2023-12-29T01:58:27;99521.41;;;9.45;90.70
19624;BME280;9959;49.798;9.928;2023-12-29T02:00:54;99516.44;;;9.42;90.09
19624;BME280;9959;49.798;9.928;2023-12-29T02:03:22;99514.56;;;9.36;91.25
19624;BME280;9959;49.798;9.928;2023-12-29T02:05:49;99513.13;;;9.27;92.41
19624;BME280;9959;49.798;9.928;2023-12-29T02:08:17;99506.09;;;9.32;92.06
19624;BME280;9959;49.798;9.928;2023-12-29T02:10:44;99500.72;;;9.26;92.64
19624;BME280;9959;49.798;9.928;2023-12-29T02:13:11;99493.50;;;9.26;92.49
19624;BME280;9959;49.798;9.928;2023-12-29T02:15:38;99509.00;;;9.18;93.34
19624;BME280;9959;49.798;9.928;2023-12-29T02:18:06;99502.59;;;9.19;93.68
19624;BME280;9959;49.798;9.928;2023-12-29T02:20:34;99499.47;;;9.22;93.67
19624;BME280;9959;49.798;9.928;2023-12-29T02:23:02;99490.59;;;9.14;94.34
19624;BME280;9959;49.798;9.928;2023-12-29T02:25:29;99489.56;;;9.15;95.02
19624;BME280;9959;49.798;9.928;2023-12-29T02:28:07;99481.28;;;9.24;94.16
19624;BME280;9959;49.798;9.928;2023-12-29T02:31:01;99480.84;;;9.33;92.76
19624;BME280;9959;49.798;9.928;2023-12-29T02:33:32;99478.59;;;9.24;94.11
19624;BME280;9959;49.798;9.928;2023-12-29T02:36:03;99480.47;;;9.23;94.24
19624;BME280;9959;49.798;9.928;2023-12-29T02:38:32;99461.44;;;9.18;95.18
19624;BME280;9959;49.798;9.928;2023-12-29T02:40:59;99462.06;;;9.20;95.35
19624;BME280;9959;49.798;9.928;2023-12-29T02:43:26;99470.13;;;9.13;95.75
19624;BME280;9959;49.798;9.928;2023-12-29T02:45:54;99478.19;;;9.20;94.95
19624;BME280;9959;49.798;9.928;2023-12-29T02:48:20;99471.38;;;9.24;95.01
19624;BME280;9959;49.798;9.928;2023-12-29T02:50:47;99469.72;;;9.30;93.56
19624;BME280;9959;49.798;9.928;2023-12-29T02:53:14;99469.31;;;9.26;94.13
19624;BME280;9959;49.798;9.928;2023-12-29T02:55:41;99470.13;;;9.27;94.15
19624;BME280;9959;49.798;9.928;2023-12-29T02:58:09;99461.03;;;9.28;93.88
19624;BME280;9959;49.798;9.928;2023-12-29T03:00:36;99464.53;;;9.22;94.34
19624;BME280;9959;49.798;9.928;2023-12-29T03:03:03;99458.97;;;9.16;94.32
19624;BME280;9959;49.798;9.928;2023-12-29T03:05:30;99464.34;;;9.16;93.91
19624;BME280;9959;49.798;9.928;2023-12-29T03:07:57;99466.81;;;9.11;94.59
19624;BME280;9959;49.798;9.928;2023-12-29T03:10:24;99456.47;;;9.08;94.27
19624;BME280;9959;49.798;9.928;2023-12-29T03:12:51;99462.25;;;9.05;94.57
19624;BME280;9959;49.798;9.928;2023-12-29T03:15:18;99461.44;;;8.98;94.55
19624;BME280;9959;49.798;9.928;2023-12-29T03:17:45;99461.63;;;9.03;94.37
19624;BME280;9959;49.798;9.928;2023-12-29T03:20:12;99462.69;;;9.02;93.33
19624;BME280;9959;49.798;9.928;2023-12-29T03:22:40;99460.00;;;9.02;93.35
19624;BME280;9959;49.798;9.928;2023-12-29T03:25:07;99459.78;;;8.97;93.42
19624;BME280;9959;49.798;9.928;2023-12-29T03:27:34;99467.22;;;8.95;93.17
19624;BME280;9959;49.798;9.928;2023-12-29T03:30:01;99470.94;;;8.94;93.37
19624;BME280;9959;49.798;9.928;2023-12-29T03:32:28;99473.84;;;8.99;92.70
19624;BME280;9959;49.798;9.928;2023-12-29T03:34:55;99468.47;;;8.99;92.43
19624;BME280;9959;49.798;9.928;2023-12-29T03:37:22;99474.22;;;8.83;93.32
19624;BME280;9959;49.798;9.928;2023-12-29T03:39:49;99465.75;;;8.86;93.22
19624;BME280;9959;49.798;9.928;2023-12-29T03:42:16;99471.13;;;8.86;92.81
19624;BME280;9959;49.798;9.928;2023-12-29T03:44:43;99471.53;;;8.83;92.63
19624;BME280;9959;49.798;9.928;2023-12-29T03:47:10;99468.03;;;8.82;91.98
19624;BME280;9959;49.798;9.928;2023-12-29T03:49:37;99481.47;;;8.89;91.23
19624;BME280;9959;49.798;9.928;2023-12-29T03:52:04;99463.06;;;8.79;91.58
19624;BME280;9959;49.798;9.928;2023-12-29T03:54:32;99473.59;;;8.81;90.58
19624;BME280;9959;49.798;9.928;2023-12-29T03:56:59;99480.44;;;8.90;89.34
19624;BME280;9959;49.798;9.928;2023-12-29T03:59:25;99471.75;;;8.88;89.37
19624;BME280;9959;49.798;9.928;2023-12-29T04:01:52;99468.03;;;8.89;89.35
19624;BME280;9959;49.798;9.928;2023-12-29T04:04:19;99456.06;;;8.92;88.50
19624;BME280;9959;49.798;9.928;2023-12-29T04:06:46;99454.19;;;8.92;88.32
19624;BME280;9959;49.798;9.928;2023-12-29T04:09:13;99461.00;;;8.88;88.86
19624;BME280;9959;49.798;9.928;2023-12-29T04:11:40;99464.75;;;8.94;88.33
19624;BME280;9959;49.798;9.928;2023-12-29T04:14:06;99467.22;;;9.08;87.18
19624;BME280;9959;49.798;9.928;2023-12-29T04:16:36;99456.91;;;8.99;87.38
19624;BME280;9959;49.798;9.928;2023-12-29T04:19:04;99469.28;;;9.06;86.82
19624;BME280;9959;49.798;9.928;2023-12-29T04:21:31;99459.78;;;9.04;86.90
19624;BME280;9959;49.798;9.928;2023-12-29T04:23:58;99461.63;;;9.03;86.41
19624;BME280;9959;49.798;9.928;2023-12-29T04:26:25;99452.75;;;9.09;85.22
19624;BME280;9959;49.798;9.928;2023-12-29T04:28:52;99451.09;;;9.08;85.39
19624;BME280;9959;49.798;9.928;2023-12-29T04:31:19;99442.19;;;9.08;84.84
19624;BME280;9959;49.798;9.928;2023-12-29T04:33:46;99456.25;;;9.10;84.41
19624;BME280;9959;49.798;9.928;2023-12-29T04:36:12;99461.22;;;9.06;85.43
19624;BME280;9959;49.798;9.928;2023-12-29T04:38:39;99457.72;;;9.06;85.04
19624;BME280;9959;49.798;9.928;2023-12-29T04:41:06;99458.94;;;9.03;85.46
19624;BME280;9959;49.798;9.928;2023-12-29T04:43:34;99454.41;;;8.97;85.42
19624;BME280;9959;49.798;9.928;2023-12-29T04:46:01;99438.28;;;8.84;86.07
19624;BME280;9959;49.798;9.928;2023-12-29T04:48:28;99434.56;;;8.72;86.71
19624;BME280;9959;49.798;9.928;2023-12-29T04:50:55;99433.72;;;8.65;87.34
19624;BME280;9959;49.798;9.928;2023-12-29T04:53:22;99423.56;;;8.54;88.04
19624;BME280;9959;49.798;9.928;2023-12-29T04:55:49;99428.13;;;8.53;88.73
19624;BME280;9959;49.798;9.928;2023-12-29T04:58:16;99420.88;;;8.54;87.66
19624;BME280;9959;49.798;9.928;2023-12-29T05:00:43;99435.34;;;8.53;86.84
19624;BME280;9959;49.798;9.928;2023-12-29T05:03:11;99428.31;;;8.45;86.93
19624;BME280;9959;49.798;9.928;2023-12-29T05:05:38;99423.78;;;8.45;86.31
19624;BME280;9959;49.798;9.928;2023-12-29T05:08:05;99432.03;;;8.44;86.23
19624;BME280;9959;49.798;9.928;2023-12-29T05:10:32;99427.41;;;8.31;86.91
19624;BME280;9959;49.798;9.928;2023-12-29T05:13:01;99425.41;;;8.33;86.49
19624;BME280;9959;49.798;9.928;2023-12-29T05:15:28;99429.97;;;8.39;84.98
19624;BME280;9959;49.798;9.928;2023-12-29T05:17:55;99427.06;;;8.34;85.16
19624;BME280;9959;49.798;9.928;2023-12-29T05:20:22;99418.75;;;8.29;85.50
19624;BME280;9959;49.798;9.928;2023-12-29T05:22:48;99415.44;;;8.27;85.27
19624;BME280;9959;49.798;9.928;2023-12-29T05:25:15;99415.44;;;8.27;85.14
19624;BME280;9959;49.798;9.928;2023-12-29T05:27:42;99417.28;;;8.20;85.47
19624;BME280;9959;49.798;9.928;2023-12-29T05:30:10;99416.47;;;8.20;85.50
19624;BME280;9959;49.798;9.928;2023-12-29T05:32:37;99409.22;;;8.27;85.25
19624;BME280;9959;49.798;9.928;2023-12-29T05:35:04;99405.94;;;8.18;85.50
19624;BME280;9959;49.798;9.928;2023-12-29T05:37:31;99420.16;;;8.25;86.17
19624;BME280;9959;49.798;9.928;2023-12-29T05:39:58;99417.28;;;8.20;86.42
19624;BME280;9959;49.798;9.928;2023-12-29T05:42:25;99418.72;;;8.16;86.93
19624;BME280;9959;49.798;9.928;2023-12-29T05:44:52;99416.22;;;8.08;87.80
19624;BME280;9959;49.798;9.928;2023-12-29T05:47:19;99422.19;;;8.10;87.74
19624;BME280;9959;49.798;9.928;2023-12-29T05:49:46;99421.97;;;8.05;88.73
19624;BME280;9959;49.798;9.928;2023-12-29T05:52:13;99439.31;;;8.09;89.03
19624;BME280;9959;49.798;9.928;2023-12-29T05:54:40;99434.59;;;8.11;89.72
19624;BME280;9959;49.798;9.928;2023-12-29T05:57:07;99435.63;;;8.10;90.04
19624;BME280;9959;49.798;9.928;2023-12-29T05:59:34;99430.22;;;8.03;90.77
19624;BME280;9959;49.798;9.928;2023-12-29T06:02:01;99422.78;;;7.99;91.36
19624;BME280;9959;49.798;9.928;2023-12-29T06:04:28;99422.78;;;7.99;92.51
19624;BME280;9959;49.798;9.928;2023-12-29T06:06:54;99419.06;;;8.00;92.61
19624;BME280;9959;49.798;9.928;2023-12-29T06:09:21;99424.38;;;7.93;93.10
19624;BME280;9959;49.798;9.928;2023-12-29T06:11:49;99420.91;;;7.93;93.54
19624;BME280;9959;49.798;9.928;2023-12-29T06:14:16;99420.91;;;7.93;93.95
19624;BME280;9959;49.798;9.928;2023-12-29T06:16:43;99422.78;;;7.99;93.14
19624;BME280;9959;49.798;9.928;2023-12-29T06:19:10;99417.81;;;7.96;93.39
19624;BME280;9959;49.798;9.928;2023-12-29T06:21:43;99424.19;;;7.95;93.44
19624;BME280;9959;49.798;9.928;2023-12-29T06:24:10;99425.41;;;7.86;93.97
19624;BME280;9959;49.798;9.928;2023-12-29T06:26:38;99425.41;;;7.86;94.19
19624;BME280;9959;49.798;9.928;2023-12-29T06:29:10;99437.16;;;7.85;94.45
19624;BME280;9959;49.798;9.928;2023-12-29T06:31:40;99434.88;;;7.81;94.45
19624;BME280;9959;49.798;9.928;2023-12-29T06:34:09;99439.63;;;7.79;94.44
19624;BME280;9959;49.798;9.928;2023-12-29T06:36:36;99442.72;;;7.83;93.94
19624;BME280;9959;49.798;9.928;2023-12-29T06:39:03;99442.38;;;7.93;93.34
19624;BME280;9959;49.798;9.928;2023-12-29T06:41:30;99438.47;;;8.02;92.85
19624;BME280;9959;49.798;9.928;2023-12-29T06:43:56;99441.41;;;8.13;91.43
19624;BME280;9959;49.798;9.928;2023-12-29T06:46:23;99441.22;;;8.22;91.20
19624;BME280;9959;49.798;9.928;2023-12-29T06:48:50;99435.66;;;8.23;91.05
19624;BME280;9959;49.798;9.928;2023-12-29T06:51:18;99445.22;;;8.32;90.90
19624;BME280;9959;49.798;9.928;2023-12-29T06:53:46;99440.22;;;8.29;91.24
19624;BME280;9959;49.798;9.928;2023-12-29T06:56:17;99436.91;;;8.27;91.82
19624;BME280;9959;49.798;9.928;2023-12-29T06:58:44;99442.69;;;8.31;91.75
19624;BME280;9959;49.798;9.928;2023-12-29T07:01:12;99433.97;;;8.09;93.21
19624;BME280;9959;49.798;9.928;2023-12-29T07:03:39;99441.00;;;8.17;93.15
19624;BME280;9959;49.798;9.928;2023-12-29T07:06:06;99442.25;;;8.14;93.10
19624;BME280;9959;49.798;9.928;2023-12-29T07:08:33;99436.88;;;8.14;93.21
19624;BME280;9959;49.798;9.928;2023-12-29T07:11:00;99441.00;;;8.17;93.24
19624;BME280;9959;49.798;9.928;2023-12-29T07:13:28;99449.69;;;8.25;92.61
19624;BME280;9959;49.798;9.928;2023-12-29T07:15:55;99447.03;;;8.32;92.08
19624;BME280;9959;49.798;9.928;2023-12-29T07:18:22;99449.09;;;8.30;91.95
19624;BME280;9959;49.798;9.928;2023-12-29T07:20:49;99453.88;;;8.34;91.64
19624;BME280;9959;49.798;9.928;2023-12-29T07:23:16;99444.75;;;8.29;92.24
19624;BME280;9959;49.798;9.928;2023-12-29T07:25:42;99441.88;;;8.30;92.34
19624;BME280;9959;49.798;9.928;2023-12-29T07:28:09;99448.72;;;8.33;92.19
19624;BME280;9959;49.798;9.928;2023-12-29T07:30:36;99442.28;;;8.27;92.77
19624;BME280;9959;49.798;9.928;2023-12-29T07:33:04;99446.19;;;8.25;93.28
19624;BME280;9959;49.798;9.928;2023-12-29T07:35:31;99444.94;;;8.27;93.43
19624;BME280;9959;49.798;9.928;2023-12-29T07:37:58;99451.56;;;8.31;92.94
19624;BME280;9959;49.798;9.928;2023-12-29T07:40:26;99449.78;;;8.38;92.66
19624;BME280;9959;49.798;9.928;2023-12-29T07:42:53;99461.16;;;8.47;91.98
19624;BME280;9959;49.798;9.928;2023-12-29T07:45:19;99463.03;;;8.60;91.39
19624;BME280;9959;49.798;9.928;2023-12-29T07:47:46;99462.84;;;8.68;90.73
19624;BME280;9959;49.798;9.928;2023-12-29T07:50:13;99461.00;;;8.75;90.00
19624;BME280;9959;49.798;9.928;2023-12-29T07:52:42;99469.25;;;8.80;89.40
19624;BME280;9959;49.798;9.928;2023-12-29T07:55:09;99464.91;;;8.79;89.28
19624;BME280;9959;49.798;9.928;2023-12-29T07:57:36;99472.78;;;8.87;88.94
19624;BME280;9959;49.798;9.928;2023-12-29T08:00:04;99466.59;;;8.93;88.44
19624;BME280;9959;49.798;9.928;2023-12-29T08:02:33;99475.50;;;9.00;88.12
19624;BME280;9959;49.798;9.928;2023-12-29T08:04:59;99466.81;;;8.98;87.78
19624;BME280;9959;49.798;9.928;2023-12-29T08:07:26;99476.72;;;9.04;87.14
19624;BME280;9959;49.798;9.928;2023-12-29T08:09:53;99470.13;;;9.00;87.14
19624;BME280;9959;49.798;9.928;2023-12-29T08:12:20;99465.38;;;9.15;86.28
19624;BME280;9959;49.798;9.928;2023-12-29T08:14:47;99474.25;;;9.09;86.33
19624;BME280;9959;49.798;9.928;2023-12-29T08:17:14;99480.88;;;9.27;84.96
19624;BME280;9959;49.798;9.928;2023-12-29T08:19:41;99488.31;;;9.18;85.01
19624;BME280;9959;49.798;9.928;2023-12-29T08:22:08;99486.88;;;9.29;84.40
19624;BME280;9959;49.798;9.928;2023-12-29T08:24:35;99497.00;;;9.40;83.10
19624;BME280;9959;49.798;9.928;2023-12-29T08:27:02;99500.31;;;9.29;84.08
19624;BME280;9959;49.798;9.928;2023-12-29T08:29:30;99488.91;;;9.40;83.04
19624;BME280;9959;49.798;9.928;2023-12-29T08:31:58;99491.63;;;9.40;82.68
19624;BME280;9959;49.798;9.928;2023-12-29T08:34:25;99495.34;;;9.39;83.20
19624;BME280;9959;49.798;9.928;2023-12-29T08:36:54;99493.69;;;9.25;84.56
19624;BME280;9959;49.798;9.928;2023-12-29T08:39:21;99496.38;;;9.44;83.13
19624;BME280;9959;49.798;9.928;2023-12-29T08:41:48;99499.88;;;9.45;83.26
19624;BME280;9959;49.798;9.928;2023-12-29T08:44:16;99495.34;;;9.52;82.44
19624;BME280;9959;49.798;9.928;2023-12-29T08:46:43;99501.75;;;9.51;82.21
19624;BME280;9959;49.798;9.928;2023-12-29T08:49:10;99499.03;;;9.58;82.42
19624;BME280;9959;49.798;9.928;2023-12-29T08:51:37;99499.03;;;9.64;81.26
19624;BME280;9959;49.798;9.928;2023-12-29T08:54:04;99481.44;;;9.68;80.94
19624;BME280;9959;49.798;9.928;2023-12-29T08:56:31;99492.00;;;9.63;81.53
19624;BME280;9959;49.798;9.928;2023-12-29T08:58:58;99483.09;;;9.63;81.36
19624;BME280;9959;49.798;9.928;2023-12-29T09:01:25;99486.19;;;9.73;80.01
19624;BME280;9959;49.798;9.928;2023-12-29T09:03:52;99491.56;;;9.73;80.20
19624;BME280;9959;49.798;9.928;2023-12-29T09:06:19;99493.66;;;9.71;79.66
19624;BME280;9959;49.798;9.928;2023-12-29T09:08:46;99486.19;;;9.79;79.62
19624;BME280;9959;49.798;9.928;2023-12-29T09:11:13;99492.81;;;9.83;79.36
19624;BME280;9959;49.798;9.928;2023-12-29T09:13:42;99488.22;;;9.91;78.68
19624;BME280;9959;49.798;9.928;2023-12-29T09:16:09;99489.50;;;9.75;78.82
19624;BME280;9959;49.798;9.928;2023-12-29T09:18:39;99483.28;;;9.81;78.67
19624;BME280;9959;49.798;9.928;2023-12-29T09:21:07;99487.84;;;9.80;78.32
19624;BME280;9959;49.798;9.928;2023-12-29T09:23:34;99491.53;;;9.86;78.48
19624;BME280;9959;49.798;9.928;2023-12-29T09:26:04;99492.56;;;9.92;77.24
19624;BME280;9959;49.798;9.928;2023-12-29T09:28:32;99485.91;;;10.01;77.33
19624;BME280;9959;49.798;9.928;2023-12-29T09:31:00;99487.34;;;10.03;76.40
19624;BME280;9959;49.798;9.928;2023-12-29T09:33:27;99488.19;;;10.04;76.58
19624;BME280;9959;49.798;9.928;2023-12-29T09:35:55;99482.81;;;9.91;76.76
19624;BME280;9959;49.798;9.928;2023-12-29T09:38:21;99487.78;;;9.94;77.15
19624;BME280;9959;49.798;9.928;2023-12-29T09:40:48;99481.75;;;10.05;76.72
19624;BME280;9959;49.798;9.928;2023-12-29T09:43:16;99476.75;;;10.15;76.54
19624;BME280;9959;49.798;9.928;2023-12-29T09:45:44;99469.97;;;10.06;76.07
19624;BME280;9959;49.798;9.928;2023-12-29T09:48:16;99480.25;;;10.15;76.06
19624;BME280;9959;49.798;9.928;2023-12-29T09:50:44;99482.56;;;10.12;76.21
19624;BME280;9959;49.798;9.928;2023-12-29T09:53:12;99472.47;;;10.01;77.13
19624;BME280;9959;49.798;9.928;2023-12-29T09:55:40;99478.63;;;10.21;76.68
19624;BME280;9959;49.798;9.928;2023-12-29T09:58:09;99481.50;;;10.26;76.20
19624;BME280;9959;49.798;9.928;2023-12-29T10:00:39;99483.16;;;10.27;76.00
19624;BME280;9959;49.798;9.928;2023-12-29T10:03:08;99477.75;;;10.27;76.83
19624;BME280;9959;49.798;9.928;2023-12-29T10:05:36;99487.25;;;10.36;76.35
19624;BME280;9959;49.798;9.928;2023-12-29T10:08:05;99482.31;;;10.33;76.65
19624;BME280;9959;49.798;9.928;2023-12-29T10:10:35;99480.34;;;10.47;76.27
19624;BME280;9959;49.798;9.928;2023-12-29T10:13:04;99482.16;;;10.60;76.30
19624;BME280;9959;49.798;9.928;2023-12-29T10:15:39;99480.31;;;10.92;75.21
19624;BME280;9959;49.798;9.928;2023-12-29T10:18:18;99471.06;;;11.06;74.78
19624;BME280;9959;49.798;9.928;2023-12-29T10:21:17;99451.53;;;11.10;73.72
19624;BME280;9959;49.798;9.928;2023-12-29T10:23:57;99458.47;;;11.25;73.52
19624;BME280;9959;49.798;9.928;2023-12-29T10:26:26;99447.06;;;11.47;72.52
19624;BME280;9959;49.798;9.928;2023-12-29T10:28:53;99448.44;;;11.32;73.06
19624;BME280;9959;49.798;9.928;2023-12-29T10:31:22;99455.63;;;11.19;73.58
19624;BME280;9959;49.798;9.928;2023-12-29T10:33:51;99456.31;;;11.08;74.09
19624;BME280;9959;49.798;9.928;2023-12-29T10:36:18;99458.53;;;10.93;74.69
19624;BME280;9959;49.798;9.928;2023-12-29T10:38:46;99458.75;;;11.16;74.22
19624;BME280;9959;49.798;9.928;2023-12-29T10:41:18;99434.59;;;11.03;74.45
19624;BME280;9959;49.798;9.928;2023-12-29T10:43:46;99430.84;;;11.04;74.94
19624;BME280;9959;49.798;9.928;2023-12-29T10:46:25;99426.00;;;11.38;73.61
19624;BME280;9959;49.798;9.928;2023-12-29T10:48:52;99413.22;;;11.27;74.10
19624;BME280;9959;49.798;9.928;2023-12-29T10:51:27;99414.00;;;11.34;73.63
19624;BME280;9959;49.798;9.928;2023-12-29T10:53:56;99415.47;;;11.30;73.31
19624;BME280;9959;49.798;9.928;2023-12-29T10:56:26;99394.66;;;11.37;72.87
19624;BME280;9959;49.798;9.928;2023-12-29T10:59:02;99418.06;;;11.43;72.59
19624;BME280;9959;49.798;9.928;2023-12-29T11:01:38;99408.06;;;11.86;70.79
19624;BME280;9959;49.798;9.928;2023-12-29T11:04:06;99398.28;;;12.34;69.25
19624;BME280;9959;49.798;9.928;2023-12-29T11:06:41;99386.25;;;12.48;67.84
19624;BME280;9959;49.798;9.928;2023-12-29T11:09:10;99383.06;;;12.39;68.08
19624;BME280;9959;49.798;9.928;2023-12-29T11:11:37;99403.59;;;12.40;68.19
19624;BME280;9959;49.798;9.928;2023-12-29T11:14:05;99392.75;;;11.99;69.51
19624;BME280;9959;49.798;9.928;2023-12-29T11:16:32;99399.78;;;11.63;70.35
19624;BME280;9959;49.798;9.928;2023-12-29T11:19:00;99410.38;;;11.22;71.38
19624;BME280;9959;49.798;9.928;2023-12-29T11:21:30;99395.69;;;11.17;72.21
19624;BME280;9959;49.798;9.928;2023-12-29T11:23:58;99401.75;;;11.13;72.54
19624;BME280;9959;49.798;9.928;2023-12-29T11:26:26;99399.97;;;11.00;72.68
19624;BME280;9959;49.798;9.928;2023-12-29T11:28:54;99404.03;;;10.91;73.13
19624;BME280;9959;49.798;9.928;2023-12-29T11:31:21;99399.06;;;10.88;73.14
19624;BME280;9959;49.798;9.928;2023-12-29T11:34:13;99404.88;;;10.85;73.36
19624;BME280;9959;49.798;9.928;2023-12-29T11:36:46;99406.72;;;10.91;73.41
19624;BME280;9959;49.798;9.928;2023-12-29T11:42:29;99400.28;;;10.92;72.83
19624;BME280;9959;49.798;9.928;2023-12-29T11:44:54;99409.47;;;10.84;72.37
19624;BME280;9959;49.798;9.928;2023-12-29T11:47:39;99402.41;;;10.83;71.65
19624;BME280;9959;49.798;9.928;2023-12-29T11:50:08;99397.84;;;10.84;72.00
19624;BME280;9959;49.798;9.928;2023-12-29T11:52:39;99392.19;;;10.92;70.91
19624;BME280;9959;49.798;9.928;2023-12-29T11:55:13;99404.34;;;11.01;70.45
19624;BME280;9959;49.798;9.928;2023-12-29T11:57:41;99408.69;;;11.02;70.14
19624;BME280;9959;49.798;9.928;2023-12-29T12:00:09;99389.88;;;11.21;69.88
19624;BME280;9959;49.798;9.928;2023-12-29T12:02:36;99391.38;;;11.35;69.19
19624;BME280;9959;49.798;9.928;2023-12-29T12:05:03;99388.22;;;11.38;69.11
19624;BME280;9959;49.798;9.928;2023-12-29T12:12:47;99386.06;;;11.03;71.59
19624;BME280;9959;49.798;9.928;2023-12-29T12:18:02;99374.50;;;10.96;72.70
19624;BME280;9959;49.798;9.928;2023-12-29T12:20:38;99376.09;;;11.04;72.95
19624;BME280;9959;49.798;9.928;2023-12-29T12:23:17;99381.41;;;10.92;73.62
19624;BME280;9959;49.798;9.928;2023-12-29T12:25:45;99381.19;;;10.94;73.81
19624;BME280;9959;49.798;9.928;2023-12-29T12:28:14;99370.69;;;10.85;74.45
19624;BME280;9959;49.798;9.928;2023-12-29T12:30:41;99371.69;;;10.91;74.51
19624;BME280;9959;49.798;9.928;2023-12-29T12:33:09;99371.28;;;10.88;74.64
19624;BME280;9959;49.798;9.928;2023-12-29T12:35:38;99379.59;;;10.86;74.40
19624;BME280;9959;49.798;9.928;2023-12-29T12:40:35;99375.81;;;10.94;74.36
19624;BME280;9959;49.798;9.928;2023-12-29T12:43:02;99381.00;;;11.13;73.07
19624;BME280;9959;49.798;9.928;2023-12-29T12:45:35;99379.75;;;11.16;72.48
19624;BME280;9959;49.798;9.928;2023-12-29T12:48:20;99379.59;;;11.29;71.71
19624;BME280;9959;49.798;9.928;2023-12-29T12:50:49;99373.91;;;11.19;70.80
19624;BME280;9959;49.798;9.928;2023-12-29T12:53:16;99366.56;;;11.26;70.84
19624;BME280;9959;49.798;9.928;2023-12-29T12:55:48;99371.81;;;11.21;71.02
19624;BME280;9959;49.798;9.928;2023-12-29T12:58:19;99372.25;;;11.18;70.52
19624;BME280;9959;49.798;9.928;2023-12-29T13:00:50;99371.50;;;11.11;70.13
19624;BME280;9959;49.798;9.928;2023-12-29T13:03:21;99367.38;;;11.08;70.16
19624;BME280;9959;49.798;9.928;2023-12-29T13:05:49;99374.34;;;11.16;69.92
19624;BME280;9959;49.798;9.928;2023-12-29T13:08:17;99370.22;;;11.13;70.16
19624;BME280;9959;49.798;9.928;2023-12-29T13:11:00;99370.22;;;11.13;70.16
19624;BME280;9959;49.798;9.928;2023-12-29T13:13:41;99367.59;;;11.25;69.68
19624;BME280;9959;49.798;9.928;2023-12-29T13:16:10;99366.88;;;11.18;69.79
19624;BME280;9959;49.798;9.928;2023-12-29T13:18:37;99370.22;;;11.13;70.17
19624;BME280;9959;49.798;9.928;2023-12-29T13:21:06;99375.19;;;11.16;70.14
19624;BME280;9959;49.798;9.928;2023-12-29T13:23:33;99368.22;;;11.27;70.05
19624;BME280;9959;49.798;9.928;2023-12-29T13:26:05;99361.16;;;11.08;70.58
19624;BME280;9959;49.798;9.928;2023-12-29T13:28:35;99356.75;;;11.13;70.30
19624;BME280;9959;49.798;9.928;2023-12-29T13:31:07;99347.06;;;11.24;70.09
19624;BME280;9959;49.798;9.928;2023-12-29T13:33:59;99341.03;;;11.29;69.76
19624;BME280;9959;49.798;9.928;2023-12-29T13:36:47;99338.94;;;11.31;69.43
19624;BME280;9959;49.798;9.928;2023-12-29T13:39:36;99341.72;;;11.42;69.17